sensor_id;sensor_type;location;lat;lon;timestamp;temperature;humidity
17425;DHT22;8830;50.978;5.058;2022-09-28T00:00:12;10.00;99.90
17425;DHT22;8830;50.978;5.058;2022-09-28T00:02:40;10.00;99.90
17425;DHT22;8830;50.978;5.058;2022-09-28T00:05:08;10.00;99.90
17425;DHT22;8830;50.978;5.058;2022-09-28T00:07:37;10.00;99.90
17425;DHT22;8830;50.978;5.058;2022-09-28T00:10:05;9.90;99.90
17425;DHT22;8830;50.978;5.058;2022-09-28T00:12:32;9.90;99.90
17425;DHT22;8830;50.978;5.058;2022-09-28T00:14:59;9.90;99.90
17425;DHT22;8830;50.978;5.058;2022-09-28T00:17:28;10.00;99.90
17425;DHT22;8830;50.978;5.058;2022-09-28T00:19:56;9.90;99.90
17425;DHT22;8830;50.978;5.058;2022-09-28T00:22:23;10.00;99.90
17425;DHT22;8830;50.978;5.058;2022-09-28T00:24:51;10.00;99.90
17425;DHT22;8830;50.978;5.058;2022-09-28T00:27:18;10.00;99.90
17425;DHT22;8830;50.978;5.058;2022-09-28T00:29:45;10.00;99.90
17425;DHT22;8830;50.978;5.058;2022-09-28T00:32:12;10.00;99.90
17425;DHT22;8830;50.978;5.058;2022-09-28T00:34:41;9.90;99.90
17425;DHT22;8830;50.978;5.058;2022-09-28T00:37:12;10.00;99.90
17425;DHT22;8830;50.978;5.058;2022-09-28T00:39:40;10.00;99.90
17425;DHT22;8830;50.978;5.058;2022-09-28T00:42:12;10.00;99.90
17425;DHT22;8830;50.978;5.058;2022-09-28T00:44:46;10.10;99.90
17425;DHT22;8830;50.978;5.058;2022-09-28T00:47:24;10.10;99.90
17425;DHT22;8830;50.978;5.058;2022-09-28T00:49:55;10.00;99.90
17425;DHT22;8830;50.978;5.058;2022-09-28T00:52:27;10.00;99.90
17425;DHT22;8830;50.978;5.058;2022-09-28T00:54:59;10.00;99.90
17425;DHT22;8830;50.978;5.058;2022-09-28T00:57:28;9.90;99.90
17425;DHT22;8830;50.978;5.058;2022-09-28T00:59:55;9.90;99.90
17425;DHT22;8830;50.978;5.058;2022-09-28T01:02:22;9.90;99.90
17425;DHT22;8830;50.978;5.058;2022-09-28T01:04:50;9.80;99.90
17425;DHT22;8830;50.978;5.058;2022-09-28T01:07:18;9.70;99.90
17425;DHT22;8830;50.978;5.058;2022-09-28T01:09:47;9.70;99.90
17425;DHT22;8830;50.978;5.058;2022-09-28T01:12:14;9.60;99.90
17425;DHT22;8830;50.978;5.058;2022-09-28T01:14:42;9.60;99.90
17425;DHT22;8830;50.978;5.058;2022-09-28T01:17:13;9.60;99.90
17425;DHT22;8830;50.978;5.058;2022-09-28T01:23:24;9.60;99.90
17425;DHT22;8830;50.978;5.058;2022-09-28T01:26:13;9.60;99.90
17425;DHT22;8830;50.978;5.058;2022-09-28T01:28:43;9.50;99.90
17425;DHT22;8830;50.978;5.058;2022-09-28T01:31:13;9.50;99.90
17425;DHT22;8830;50.978;5.058;2022-09-28T01:33:43;9.40;99.90
17425;DHT22;8830;50.978;5.058;2022-09-28T01:36:16;9.30;99.90
17425;DHT22;8830;50.978;5.058;2022-09-28T01:38:46;9.20;99.90
17425;DHT22;8830;50.978;5.058;2022-09-28T01:41:17;9.20;99.90
17425;DHT22;8830;50.978;5.058;2022-09-28T01:43:47;11.20;99.90
17425;DHT22;8830;50.978;5.058;2022-09-28T01:46:19;9.20;99.90
17425;DHT22;8830;50.978;5.058;2022-09-28T01:48:50;9.20;99.90
17425;DHT22;8830;50.978;5.058;2022-09-28T01:51:24;9.20;99.90
17425;DHT22;8830;50.978;5.058;2022-09-28T01:53:56;9.30;99.90
17425;DHT22;8830;50.978;5.058;2022-09-28T01:56:31;9.30;99.90
17425;DHT22;8830;50.978;5.058;2022-09-28T01:59:06;9.30;99.90
17425;DHT22;8830;50.978;5.058;2022-09-28T02:01:36;9.40;99.90
17425;DHT22;8830;50.978;5.058;2022-09-28T02:04:10;9.50;99.90
17425;DHT22;8830;50.978;5.058;2022-09-28T02:06:43;9.50;99.90
17425;DHT22;8830;50.978;5.058;2022-09-28T02:09:15;9.50;99.90
17425;DHT22;8830;50.978;5.058;2022-09-28T02:11:50;9.40;99.90
17425;DHT22;8830;50.978;5.058;2022-09-28T02:14:19;9.40;99.90
17425;DHT22;8830;50.978;5.058;2022-09-28T02:16:50;9.40;99.90
17425;DHT22;8830;50.978;5.058;2022-09-28T02:19:20;9.40;99.90
17425;DHT22;8830;50.978;5.058;2022-09-28T02:21:53;9.40;99.90
17425;DHT22;8830;50.978;5.058;2022-09-28T02:24:33;9.50;99.90
17425;DHT22;8830;50.978;5.058;2022-09-28T02:27:08;9.50;99.90
17425;DHT22;8830;50.978;5.058;2022-09-28T02:29:38;9.60;99.90
17425;DHT22;8830;50.978;5.058;2022-09-28T02:32:05;9.50;99.90
17425;DHT22;8830;50.978;5.058;2022-09-28T02:34:34;9.60;99.90
17425;DHT22;8830;50.978;5.058;2022-09-28T02:37:01;9.50;99.90
17425;DHT22;8830;50.978;5.058;2022-09-28T02:39:28;9.60;99.90
17425;DHT22;8830;50.978;5.058;2022-09-28T02:42:01;9.50;99.90
17425;DHT22;8830;50.978;5.058;2022-09-28T02:44:55;9.60;99.90
17425;DHT22;8830;50.978;5.058;2022-09-28T02:47:34;9.60;99.90
17425;DHT22;8830;50.978;5.058;2022-09-28T02:50:12;9.50;99.90
17425;DHT22;8830;50.978;5.058;2022-09-28T02:52:54;9.60;99.90
17425;DHT22;8830;50.978;5.058;2022-09-28T02:55:34;9.50;99.90
17425;DHT22;8830;50.978;5.058;2022-09-28T02:58:19;9.40;99.90
17425;DHT22;8830;50.978;5.058;2022-09-28T03:00:54;9.40;99.90
17425;DHT22;8830;50.978;5.058;2022-09-28T03:03:31;9.40;99.90
17425;DHT22;8830;50.978;5.058;2022-09-28T03:06:03;9.40;99.90
17425;DHT22;8830;50.978;5.058;2022-09-28T03:08:34;9.30;99.90
17425;DHT22;8830;50.978;5.058;2022-09-28T03:11:06;9.20;99.90
17425;DHT22;8830;50.978;5.058;2022-09-28T03:13:35;9.20;99.90
17425;DHT22;8830;50.978;5.058;2022-09-28T03:16:18;9.20;99.90
17425;DHT22;8830;50.978;5.058;2022-09-28T03:18:46;9.20;99.90
17425;DHT22;8830;50.978;5.058;2022-09-28T03:21:14;9.30;99.90
17425;DHT22;8830;50.978;5.058;2022-09-28T03:23:41;9.30;99.90
17425;DHT22;8830;50.978;5.058;2022-09-28T03:26:10;9.20;99.90
17425;DHT22;8830;50.978;5.058;2022-09-28T03:28:37;9.20;99.90
17425;DHT22;8830;50.978;5.058;2022-09-28T03:31:05;9.20;99.90
17425;DHT22;8830;50.978;5.058;2022-09-28T03:33:34;9.30;99.90
17425;DHT22;8830;50.978;5.058;2022-09-28T03:36:01;9.20;99.90
17425;DHT22;8830;50.978;5.058;2022-09-28T03:38:28;9.20;99.90
17425;DHT22;8830;50.978;5.058;2022-09-28T03:40:57;9.30;99.90
17425;DHT22;8830;50.978;5.058;2022-09-28T03:43:25;9.30;99.90
17425;DHT22;8830;50.978;5.058;2022-09-28T03:45:53;9.30;99.90
17425;DHT22;8830;50.978;5.058;2022-09-28T03:48:21;9.30;99.90
17425;DHT22;8830;50.978;5.058;2022-09-28T03:50:53;9.30;99.90
17425;DHT22;8830;50.978;5.058;2022-09-28T03:53:20;9.20;99.90
17425;DHT22;8830;50.978;5.058;2022-09-28T03:55:47;9.30;99.90
17425;DHT22;8830;50.978;5.058;2022-09-28T03:58:15;9.30;99.90
17425;DHT22;8830;50.978;5.058;2022-09-28T04:00:42;9.40;99.90
17425;DHT22;8830;50.978;5.058;2022-09-28T04:03:09;9.80;99.90
17425;DHT22;8830;50.978;5.058;2022-09-28T04:05:37;9.30;99.90
17425;DHT22;8830;50.978;5.058;2022-09-28T04:08:05;9.40;99.90
17425;DHT22;8830;50.978;5.058;2022-09-28T04:10:32;9.20;99.90
17425;DHT22;8830;50.978;5.058;2022-09-28T04:12:59;9.10;99.90
17425;DHT22;8830;50.978;5.058;2022-09-28T04:15:26;9.00;99.90
17425;DHT22;8830;50.978;5.058;2022-09-28T04:17:53;8.90;99.90
17425;DHT22;8830;50.978;5.058;2022-09-28T04:20:19;8.80;99.90
17425;DHT22;8830;50.978;5.058;2022-09-28T04:22:47;8.80;99.90
17425;DHT22;8830;50.978;5.058;2022-09-28T04:25:15;8.70;99.90
17425;DHT22;8830;50.978;5.058;2022-09-28T04:27:42;8.70;99.90
17425;DHT22;8830;50.978;5.058;2022-09-28T04:30:27;8.70;99.90
17425;DHT22;8830;50.978;5.058;2022-09-28T04:32:54;8.60;99.90
17425;DHT22;8830;50.978;5.058;2022-09-28T04:35:21;8.60;99.90
17425;DHT22;8830;50.978;5.058;2022-09-28T04:37:48;8.60;99.90
17425;DHT22;8830;50.978;5.058;2022-09-28T04:40:16;8.50;99.90
17425;DHT22;8830;50.978;5.058;2022-09-28T04:42:43;8.50;99.90
17425;DHT22;8830;50.978;5.058;2022-09-28T04:45:10;8.50;99.90
17425;DHT22;8830;50.978;5.058;2022-09-28T04:47:38;8.50;99.90
17425;DHT22;8830;50.978;5.058;2022-09-28T04:50:05;8.50;99.90
17425;DHT22;8830;50.978;5.058;2022-09-28T04:52:35;8.50;99.90
17425;DHT22;8830;50.978;5.058;2022-09-28T04:55:02;8.60;99.90
17425;DHT22;8830;50.978;5.058;2022-09-28T04:57:33;8.40;99.90
17425;DHT22;8830;50.978;5.058;2022-09-28T05:00:00;8.40;99.90
17425;DHT22;8830;50.978;5.058;2022-09-28T05:02:27;8.40;99.90
17425;DHT22;8830;50.978;5.058;2022-09-28T05:04:56;8.40;99.90
17425;DHT22;8830;50.978;5.058;2022-09-28T05:07:23;8.40;99.90
17425;DHT22;8830;50.978;5.058;2022-09-28T05:09:50;8.50;99.90
17425;DHT22;8830;50.978;5.058;2022-09-28T05:12:19;8.50;99.90
17425;DHT22;8830;50.978;5.058;2022-09-28T05:14:47;8.50;99.90
17425;DHT22;8830;50.978;5.058;2022-09-28T05:17:14;8.50;99.90
17425;DHT22;8830;50.978;5.058;2022-09-28T05:19:41;8.50;99.90
17425;DHT22;8830;50.978;5.058;2022-09-28T05:22:08;8.40;99.90
17425;DHT22;8830;50.978;5.058;2022-09-28T05:24:40;8.40;99.90
17425;DHT22;8830;50.978;5.058;2022-09-28T05:27:08;8.30;99.90
17425;DHT22;8830;50.978;5.058;2022-09-28T05:29:35;8.40;99.90
17425;DHT22;8830;50.978;5.058;2022-09-28T05:32:03;8.50;99.90
17425;DHT22;8830;50.978;5.058;2022-09-28T05:34:30;8.50;99.90
17425;DHT22;8830;50.978;5.058;2022-09-28T05:36:57;8.60;99.90
17425;DHT22;8830;50.978;5.058;2022-09-28T05:39:24;8.60;99.90
17425;DHT22;8830;50.978;5.058;2022-09-28T05:41:51;8.60;99.90
17425;DHT22;8830;50.978;5.058;2022-09-28T05:44:20;8.50;99.90
17425;DHT22;8830;50.978;5.058;2022-09-28T05:46:47;8.50;99.90
17425;DHT22;8830;50.978;5.058;2022-09-28T05:49:15;8.50;99.90
17425;DHT22;8830;50.978;5.058;2022-09-28T05:51:42;8.50;99.90
17425;DHT22;8830;50.978;5.058;2022-09-28T05:54:11;8.50;99.90
17425;DHT22;8830;50.978;5.058;2022-09-28T05:56:38;8.50;99.90
17425;DHT22;8830;50.978;5.058;2022-09-28T05:59:05;8.50;99.90
17425;DHT22;8830;50.978;5.058;2022-09-28T06:01:34;8.50;99.90
17425;DHT22;8830;50.978;5.058;2022-09-28T06:04:02;8.50;99.90
17425;DHT22;8830;50.978;5.058;2022-09-28T06:06:30;8.50;99.90
17425;DHT22;8830;50.978;5.058;2022-09-28T06:08:57;8.50;99.90
17425;DHT22;8830;50.978;5.058;2022-09-28T06:11:24;8.50;99.90
17425;DHT22;8830;50.978;5.058;2022-09-28T06:13:52;8.60;99.90
17425;DHT22;8830;50.978;5.058;2022-09-28T06:16:20;8.60;99.90
17425;DHT22;8830;50.978;5.058;2022-09-28T06:18:48;8.60;99.90
17425;DHT22;8830;50.978;5.058;2022-09-28T06:21:16;8.40;99.90
17425;DHT22;8830;50.978;5.058;2022-09-28T06:23:44;9.30;99.90
17425;DHT22;8830;50.978;5.058;2022-09-28T06:26:12;9.30;99.90
17425;DHT22;8830;50.978;5.058;2022-09-28T06:28:40;11.00;99.90
17425;DHT22;8830;50.978;5.058;2022-09-28T06:31:13;11.90;99.90
17425;DHT22;8830;50.978;5.058;2022-09-28T06:33:42;13.20;99.90
17425;DHT22;8830;50.978;5.058;2022-09-28T06:36:10;13.20;99.90
17425;DHT22;8830;50.978;5.058;2022-09-28T06:38:39;14.30;99.90
17425;DHT22;8830;50.978;5.058;2022-09-28T06:41:08;15.00;99.90
17425;DHT22;8830;50.978;5.058;2022-09-28T06:43:35;15.00;99.90
17425;DHT22;8830;50.978;5.058;2022-09-28T06:46:05;15.20;99.90
17425;DHT22;8830;50.978;5.058;2022-09-28T06:48:33;15.40;99.90
17425;DHT22;8830;50.978;5.058;2022-09-28T06:51:05;15.80;99.90
17425;DHT22;8830;50.978;5.058;2022-09-28T06:53:33;16.20;99.90
17425;DHT22;8830;50.978;5.058;2022-09-28T06:56:06;16.70;99.90
17425;DHT22;8830;50.978;5.058;2022-09-28T06:58:51;16.90;99.90
17425;DHT22;8830;50.978;5.058;2022-09-28T07:01:37;16.90;99.90
17425;DHT22;8830;50.978;5.058;2022-09-28T07:04:32;17.20;99.90
17425;DHT22;8830;50.978;5.058;2022-09-28T07:07:14;17.50;99.90
17425;DHT22;8830;50.978;5.058;2022-09-28T07:20:44;18.40;99.90
17425;DHT22;8830;50.978;5.058;2022-09-28T07:23:57;18.60;99.90
17425;DHT22;8830;50.978;5.058;2022-09-28T07:26:44;18.50;99.90
17425;DHT22;8830;50.978;5.058;2022-09-28T07:29:37;18.90;99.90
17425;DHT22;8830;50.978;5.058;2022-09-28T07:32:33;19.10;99.90
17425;DHT22;8830;50.978;5.058;2022-09-28T07:35:38;19.10;99.90
17425;DHT22;8830;50.978;5.058;2022-09-28T07:38:28;18.90;99.90
17425;DHT22;8830;50.978;5.058;2022-09-28T07:41:55;18.90;99.90
17425;DHT22;8830;50.978;5.058;2022-09-28T07:45:10;18.90;99.90
17425;DHT22;8830;50.978;5.058;2022-09-28T07:48:10;19.50;99.90
17425;DHT22;8830;50.978;5.058;2022-09-28T07:50:53;19.50;99.90
17425;DHT22;8830;50.978;5.058;2022-09-28T07:53:30;19.70;99.90
17425;DHT22;8830;50.978;5.058;2022-09-28T07:55:59;19.60;99.90
17425;DHT22;8830;50.978;5.058;2022-09-28T07:58:37;19.90;99.90
17425;DHT22;8830;50.978;5.058;2022-09-28T08:01:15;20.20;99.90
17425;DHT22;8830;50.978;5.058;2022-09-28T08:03:50;20.20;99.90
17425;DHT22;8830;50.978;5.058;2022-09-28T08:06:22;20.30;99.90
17425;DHT22;8830;50.978;5.058;2022-09-28T08:09:04;20.40;99.90
17425;DHT22;8830;50.978;5.058;2022-09-28T08:11:37;20.30;99.90
17425;DHT22;8830;50.978;5.058;2022-09-28T08:14:15;20.50;99.90
17425;DHT22;8830;50.978;5.058;2022-09-28T08:17:04;20.80;99.90
17425;DHT22;8830;50.978;5.058;2022-09-28T08:19:56;21.30;99.90
17425;DHT22;8830;50.978;5.058;2022-09-28T08:39:21;17.40;99.90
17425;DHT22;8830;50.978;5.058;2022-09-28T08:49:17;16.00;99.90
17425;DHT22;8830;50.978;5.058;2022-09-28T08:52:25;15.70;99.90
17425;DHT22;8830;50.978;5.058;2022-09-28T09:02:08;15.30;99.90
17425;DHT22;8830;50.978;5.058;2022-09-28T09:05:15;15.40;99.90
17425;DHT22;8830;50.978;5.058;2022-09-28T09:08:32;15.40;99.90
17425;DHT22;8830;50.978;5.058;2022-09-28T09:15:31;15.60;99.90
17425;DHT22;8830;50.978;5.058;2022-09-28T09:18:33;15.60;99.90
17425;DHT22;8830;50.978;5.058;2022-09-28T09:21:38;15.60;99.90
17425;DHT22;8830;50.978;5.058;2022-09-28T09:24:35;15.60;99.90
17425;DHT22;8830;50.978;5.058;2022-09-28T09:27:24;15.60;99.90
17425;DHT22;8830;50.978;5.058;2022-09-28T09:30:23;15.70;99.90
17425;DHT22;8830;50.978;5.058;2022-09-28T09:33:17;15.70;99.90
17425;DHT22;8830;50.978;5.058;2022-09-28T09:36:25;15.60;99.90
17425;DHT22;8830;50.978;5.058;2022-09-28T09:39:26;15.50;99.90
17425;DHT22;8830;50.978;5.058;2022-09-28T09:42:29;15.50;99.90
17425;DHT22;8830;50.978;5.058;2022-09-28T09:45:23;15.70;99.90
17425;DHT22;8830;50.978;5.058;2022-09-28T09:48:24;15.70;99.90
17425;DHT22;8830;50.978;5.058;2022-09-28T09:51:16;15.90;99.90
17425;DHT22;8830;50.978;5.058;2022-09-28T09:53:54;16.10;99.90
17425;DHT22;8830;50.978;5.058;2022-09-28T09:57:09;16.10;99.90
17425;DHT22;8830;50.978;5.058;2022-09-28T10:00:31;16.30;99.90
17425;DHT22;8830;50.978;5.058;2022-09-28T10:03:05;16.50;99.90
17425;DHT22;8830;50.978;5.058;2022-09-28T10:05:38;16.60;99.90
17425;DHT22;8830;50.978;5.058;2022-09-28T10:08:24;16.40;99.90
17425;DHT22;8830;50.978;5.058;2022-09-28T10:11:06;16.20;99.90
17425;DHT22;8830;50.978;5.058;2022-09-28T10:13:38;16.40;99.90
17425;DHT22;8830;50.978;5.058;2022-09-28T10:16:21;16.60;99.90
17425;DHT22;8830;50.978;5.058;2022-09-28T10:18:58;16.60;99.90
17425;DHT22;8830;50.978;5.058;2022-09-28T10:21:48;16.50;99.90
17425;DHT22;8830;50.978;5.058;2022-09-28T10:24:30;16.20;99.90
17425;DHT22;8830;50.978;5.058;2022-09-28T10:38:28;16.60;99.90
17425;DHT22;8830;50.978;5.058;2022-09-28T11:02:36;17.40;99.90
17425;DHT22;8830;50.978;5.058;2022-09-28T11:05:56;17.40;99.90
17425;DHT22;8830;50.978;5.058;2022-09-28T11:08:48;17.50;99.90
17425;DHT22;8830;50.978;5.058;2022-09-28T11:11:41;17.50;99.90
17425;DHT22;8830;50.978;5.058;2022-09-28T11:14:55;17.30;99.90
17425;DHT22;8830;50.978;5.058;2022-09-28T11:18:10;17.10;99.90
17425;DHT22;8830;50.978;5.058;2022-09-28T11:21:30;17.20;99.90
17425;DHT22;8830;50.978;5.058;2022-09-28T11:24:24;17.20;99.90
17425;DHT22;8830;50.978;5.058;2022-09-28T11:27:32;17.30;99.90
17425;DHT22;8830;50.978;5.058;2022-09-28T11:30:00;17.10;99.90
17425;DHT22;8830;50.978;5.058;2022-09-28T11:32:53;17.00;99.90
17425;DHT22;8830;50.978;5.058;2022-09-28T11:35:41;17.00;99.90
17425;DHT22;8830;50.978;5.058;2022-09-28T11:38:43;17.00;99.90
17425;DHT22;8830;50.978;5.058;2022-09-28T11:41:56;16.90;99.90
17425;DHT22;8830;50.978;5.058;2022-09-28T11:45:34;16.90;99.90
17425;DHT22;8830;50.978;5.058;2022-09-28T11:52:31;16.70;99.90
17425;DHT22;8830;50.978;5.058;2022-09-28T11:55:37;16.90;99.90
17425;DHT22;8830;50.978;5.058;2022-09-28T11:58:23;17.40;99.90
17425;DHT22;8830;50.978;5.058;2022-09-28T12:01:03;17.60;99.90
17425;DHT22;8830;50.978;5.058;2022-09-28T12:03:38;17.60;99.90
17425;DHT22;8830;50.978;5.058;2022-09-28T12:06:10;17.60;99.90
17425;DHT22;8830;50.978;5.058;2022-09-28T12:08:49;17.60;99.90
17425;DHT22;8830;50.978;5.058;2022-09-28T12:11:22;17.30;99.90
17425;DHT22;8830;50.978;5.058;2022-09-28T12:13:57;17.30;99.90
17425;DHT22;8830;50.978;5.058;2022-09-28T12:16:31;17.20;99.90
17425;DHT22;8830;50.978;5.058;2022-09-28T12:19:04;17.20;99.90
17425;DHT22;8830;50.978;5.058;2022-09-28T12:21:37;16.90;99.90
17425;DHT22;8830;50.978;5.058;2022-09-28T12:24:17;16.50;99.90
17425;DHT22;8830;50.978;5.058;2022-09-28T12:26:53;16.20;99.90
17425;DHT22;8830;50.978;5.058;2022-09-28T12:29:25;16.00;99.90
17425;DHT22;8830;50.978;5.058;2022-09-28T12:31:59;15.70;99.90
17425;DHT22;8830;50.978;5.058;2022-09-28T12:34:29;15.50;99.90
17425;DHT22;8830;50.978;5.058;2022-09-28T12:37:07;15.60;99.90
17425;DHT22;8830;50.978;5.058;2022-09-28T12:39:46;15.60;99.90
17425;DHT22;8830;50.978;5.058;2022-09-28T12:42:27;15.60;99.90
17425;DHT22;8830;50.978;5.058;2022-09-28T12:45:16;15.50;99.90
17425;DHT22;8830;50.978;5.058;2022-09-28T12:47:58;15.60;99.90
17425;DHT22;8830;50.978;5.058;2022-09-28T12:50:35;15.90;99.90
17425;DHT22;8830;50.978;5.058;2022-09-28T12:53:33;16.00;99.90
17425;DHT22;8830;50.978;5.058;2022-09-28T12:56:10;16.20;99.90
17425;DHT22;8830;50.978;5.058;2022-09-28T12:58:52;16.80;99.90
17425;DHT22;8830;50.978;5.058;2022-09-28T13:07:34;17.10;99.90
17425;DHT22;8830;50.978;5.058;2022-09-28T13:10:13;17.20;99.90
17425;DHT22;8830;50.978;5.058;2022-09-28T13:12:59;16.90;99.90
17425;DHT22;8830;50.978;5.058;2022-09-28T13:15:50;16.40;99.90
17425;DHT22;8830;50.978;5.058;2022-09-28T13:18:34;15.90;99.90
17425;DHT22;8830;50.978;5.058;2022-09-28T13:21:13;15.50;99.90
17425;DHT22;8830;50.978;5.058;2022-09-28T13:23:46;15.20;99.90
17425;DHT22;8830;50.978;5.058;2022-09-28T13:26:20;15.10;99.90
17425;DHT22;8830;50.978;5.058;2022-09-28T13:28:50;14.80;99.90
17425;DHT22;8830;50.978;5.058;2022-09-28T13:31:23;14.70;99.90
17425;DHT22;8830;50.978;5.058;2022-09-28T13:33:55;14.60;99.90
17425;DHT22;8830;50.978;5.058;2022-09-28T13:36:39;14.50;99.90
17425;DHT22;8830;50.978;5.058;2022-09-28T13:39:34;14.30;99.90
17425;DHT22;8830;50.978;5.058;2022-09-28T13:42:07;14.20;99.90
17425;DHT22;8830;50.978;5.058;2022-09-28T13:45:07;14.10;99.90
17425;DHT22;8830;50.978;5.058;2022-09-28T13:48:03;13.90;99.90
17425;DHT22;8830;50.978;5.058;2022-09-28T13:50:54;13.80;99.90
17425;DHT22;8830;50.978;5.058;2022-09-28T13:53:31;13.60;99.90
17425;DHT22;8830;50.978;5.058;2022-09-28T13:56:13;13.60;99.90
17425;DHT22;8830;50.978;5.058;2022-09-28T13:58:54;13.60;99.90
17425;DHT22;8830;50.978;5.058;2022-09-28T14:01:31;13.80;99.90
17425;DHT22;8830;50.978;5.058;2022-09-28T14:04:15;13.70;99.90
17425;DHT22;8830;50.978;5.058;2022-09-28T14:06:49;13.80;99.90
17425;DHT22;8830;50.978;5.058;2022-09-28T14:09:39;13.60;99.90
17425;DHT22;8830;50.978;5.058;2022-09-28T14:12:44;13.70;99.90
17425;DHT22;8830;50.978;5.058;2022-09-28T14:15:43;13.70;99.90
17425;DHT22;8830;50.978;5.058;2022-09-28T14:18:25;13.90;99.90
17425;DHT22;8830;50.978;5.058;2022-09-28T14:21:00;13.90;99.90
17425;DHT22;8830;50.978;5.058;2022-09-28T14:23:57;13.90;99.90
17425;DHT22;8830;50.978;5.058;2022-09-28T14:29:25;14.20;99.90
17425;DHT22;8830;50.978;5.058;2022-09-28T14:31:57;14.40;99.90
17425;DHT22;8830;50.978;5.058;2022-09-28T14:34:33;14.50;99.90
17425;DHT22;8830;50.978;5.058;2022-09-28T14:37:03;14.80;99.90
17425;DHT22;8830;50.978;5.058;2022-09-28T14:39:51;14.90;99.90
17425;DHT22;8830;50.978;5.058;2022-09-28T14:42:36;15.00;99.90
17425;DHT22;8830;50.978;5.058;2022-09-28T14:48:18;15.20;99.90
17425;DHT22;8830;50.978;5.058;2022-09-28T14:50:50;15.30;99.90
17425;DHT22;8830;50.978;5.058;2022-09-28T14:53:26;15.50;99.90
17425;DHT22;8830;50.978;5.058;2022-09-28T14:55:58;15.70;99.90
17425;DHT22;8830;50.978;5.058;2022-09-28T14:58:35;15.90;99.90
17425;DHT22;8830;50.978;5.058;2022-09-28T15:01:17;16.00;99.90
17425;DHT22;8830;50.978;5.058;2022-09-28T15:03:58;16.20;99.90
17425;DHT22;8830;50.978;5.058;2022-09-28T15:06:44;16.20;99.90
17425;DHT22;8830;50.978;5.058;2022-09-28T15:09:29;16.00;99.90
17425;DHT22;8830;50.978;5.058;2022-09-28T15:11:59;16.00;99.90
17425;DHT22;8830;50.978;5.058;2022-09-28T15:14:30;15.90;99.90
17425;DHT22;8830;50.978;5.058;2022-09-28T15:17:08;15.80;99.90
17425;DHT22;8830;50.978;5.058;2022-09-28T15:19:41;15.30;99.90
17425;DHT22;8830;50.978;5.058;2022-09-28T15:22:19;15.30;99.90
17425;DHT22;8830;50.978;5.058;2022-09-28T15:24:53;15.10;99.90
17425;DHT22;8830;50.978;5.058;2022-09-28T15:27:21;15.00;99.90
17425;DHT22;8830;50.978;5.058;2022-09-28T15:29:55;14.90;99.90
17425;DHT22;8830;50.978;5.058;2022-09-28T15:32:23;14.90;99.90
17425;DHT22;8830;50.978;5.058;2022-09-28T15:34:51;14.80;99.90
17425;DHT22;8830;50.978;5.058;2022-09-28T15:37:26;14.80;99.90
17425;DHT22;8830;50.978;5.058;2022-09-28T15:39:57;14.80;99.90
17425;DHT22;8830;50.978;5.058;2022-09-28T15:42:26;14.90;99.90
17425;DHT22;8830;50.978;5.058;2022-09-28T15:45:03;15.00;99.90
17425;DHT22;8830;50.978;5.058;2022-09-28T15:47:33;15.00;99.90
17425;DHT22;8830;50.978;5.058;2022-09-28T15:50:07;15.00;99.90
17425;DHT22;8830;50.978;5.058;2022-09-28T15:52:52;14.90;99.90
17425;DHT22;8830;50.978;5.058;2022-09-28T15:55:30;14.90;99.90
17425;DHT22;8830;50.978;5.058;2022-09-28T15:58:06;14.70;99.90
17425;DHT22;8830;50.978;5.058;2022-09-28T16:00:42;14.70;99.90
17425;DHT22;8830;50.978;5.058;2022-09-28T16:03:27;14.60;99.90
17425;DHT22;8830;50.978;5.058;2022-09-28T16:06:05;14.50;99.90
17425;DHT22;8830;50.978;5.058;2022-09-28T16:08:46;14.50;99.90
17425;DHT22;8830;50.978;5.058;2022-09-28T16:11:19;14.60;99.90
17425;DHT22;8830;50.978;5.058;2022-09-28T16:13:56;14.50;99.90
17425;DHT22;8830;50.978;5.058;2022-09-28T16:16:33;14.50;99.90
17425;DHT22;8830;50.978;5.058;2022-09-28T16:19:02;14.60;99.90
17425;DHT22;8830;50.978;5.058;2022-09-28T16:21:46;14.50;99.90
17425;DHT22;8830;50.978;5.058;2022-09-28T16:24:22;14.50;99.90
17425;DHT22;8830;50.978;5.058;2022-09-28T16:26:55;14.40;99.90
17425;DHT22;8830;50.978;5.058;2022-09-28T16:29:25;14.40;99.90
17425;DHT22;8830;50.978;5.058;2022-09-28T16:31:54;14.20;99.90
17425;DHT22;8830;50.978;5.058;2022-09-28T16:34:24;14.20;99.90
17425;DHT22;8830;50.978;5.058;2022-09-28T16:36:54;14.20;99.90
17425;DHT22;8830;50.978;5.058;2022-09-28T16:39:23;14.10;99.90
17425;DHT22;8830;50.978;5.058;2022-09-28T16:41:53;14.10;99.90
17425;DHT22;8830;50.978;5.058;2022-09-28T16:44:24;14.10;99.90
17425;DHT22;8830;50.978;5.058;2022-09-28T16:46:56;14.10;99.90
17425;DHT22;8830;50.978;5.058;2022-09-28T16:49:26;14.00;99.90
17425;DHT22;8830;50.978;5.058;2022-09-28T16:51:54;13.90;99.90
17425;DHT22;8830;50.978;5.058;2022-09-28T16:54:24;13.90;99.90
17425;DHT22;8830;50.978;5.058;2022-09-28T16:57:11;13.90;99.90
17425;DHT22;8830;50.978;5.058;2022-09-28T16:59:38;13.90;99.90
17425;DHT22;8830;50.978;5.058;2022-09-28T17:02:18;13.90;99.90
17425;DHT22;8830;50.978;5.058;2022-09-28T17:04:51;13.80;99.90
17425;DHT22;8830;50.978;5.058;2022-09-28T17:07:18;13.80;99.90
17425;DHT22;8830;50.978;5.058;2022-09-28T17:09:48;13.80;99.90
17425;DHT22;8830;50.978;5.058;2022-09-28T17:12:18;13.80;99.90
17425;DHT22;8830;50.978;5.058;2022-09-28T17:14:49;13.80;99.90
17425;DHT22;8830;50.978;5.058;2022-09-28T17:17:16;13.90;99.90
17425;DHT22;8830;50.978;5.058;2022-09-28T17:19:44;13.70;99.90
17425;DHT22;8830;50.978;5.058;2022-09-28T17:22:11;13.60;99.90
17425;DHT22;8830;50.978;5.058;2022-09-28T17:24:41;13.50;99.90
17425;DHT22;8830;50.978;5.058;2022-09-28T17:27:14;13.40;99.90
17425;DHT22;8830;50.978;5.058;2022-09-28T17:29:43;13.20;99.90
17425;DHT22;8830;50.978;5.058;2022-09-28T17:32:12;13.00;99.90
17425;DHT22;8830;50.978;5.058;2022-09-28T17:34:42;13.00;99.90
17425;DHT22;8830;50.978;5.058;2022-09-28T17:37:11;12.90;99.90
17425;DHT22;8830;50.978;5.058;2022-09-28T17:39:39;12.90;99.90
17425;DHT22;8830;50.978;5.058;2022-09-28T17:42:06;13.00;99.90
17425;DHT22;8830;50.978;5.058;2022-09-28T17:44:34;12.80;99.90
17425;DHT22;8830;50.978;5.058;2022-09-28T17:47:02;12.70;99.90
17425;DHT22;8830;50.978;5.058;2022-09-28T17:49:29;12.70;99.90
17425;DHT22;8830;50.978;5.058;2022-09-28T17:51:57;12.70;99.90
17425;DHT22;8830;50.978;5.058;2022-09-28T17:54:24;12.70;99.90
17425;DHT22;8830;50.978;5.058;2022-09-28T17:56:51;12.60;99.90
17425;DHT22;8830;50.978;5.058;2022-09-28T17:59:19;12.60;99.90
17425;DHT22;8830;50.978;5.058;2022-09-28T18:01:47;12.50;99.90
17425;DHT22;8830;50.978;5.058;2022-09-28T18:04:14;12.50;99.90
17425;DHT22;8830;50.978;5.058;2022-09-28T18:06:43;12.40;99.90
17425;DHT22;8830;50.978;5.058;2022-09-28T18:09:12;12.30;99.90
17425;DHT22;8830;50.978;5.058;2022-09-28T18:11:42;12.30;99.90
17425;DHT22;8830;50.978;5.058;2022-09-28T18:14:09;12.20;99.90
17425;DHT22;8830;50.978;5.058;2022-09-28T18:16:37;12.10;99.90
17425;DHT22;8830;50.978;5.058;2022-09-28T18:19:05;12.00;99.90
17425;DHT22;8830;50.978;5.058;2022-09-28T18:21:33;11.90;99.90
17425;DHT22;8830;50.978;5.058;2022-09-28T18:24:00;11.80;99.90
17425;DHT22;8830;50.978;5.058;2022-09-28T18:26:27;11.70;99.90
17425;DHT22;8830;50.978;5.058;2022-09-28T18:28:54;11.60;99.90